Silver Shadow — C6FN6 — position and weather

sailwx.info

Track history (hours):
 
Tides and Currents Weather Stations Pressure Air Temp Water Temp Dewpoint Dewpoint Depression Visibility Wind Speed Wind Dir Waves Ship Positions

Silver Shadow

Operator: V Ships Leisure SAM

Last reported at 2017-Oct-12 14:27 UTC. Time now 2017-Oct-20 03:38 UTC.
Position N 16°04' E 108°32'.

Length 186 m; draft 6.1 m.

Type: Ship. MMSI: 308628000.

Date/timePositionNaut miles runAvg speedWind from/ knotsBaromVisibWave heightAir tempDewpointWater temp
2017-Oct-12 14:27N 16°04' E 108°32'715.3
2017-Oct-12 14:00N 16°09' E 108°26'1415.5
2017-Oct-12 13:05N 16°17' E 108°14'115.8
2017-Oct-12 13:00N 16°18' E 108°13'14 1.1
2017-Oct-11 23:57N 16°23' E 107°60'  
2017-Oct-08 10:33N 22°18' E 114°12'1 8.2
2017-Oct-08 10:29N 22°18' E 114°12'1 2.9
2017-Oct-08 09:59N 22°18' E 114°10'0 0.0
2017-Oct-08 09:29N 22°18' E 114°10'0 0.0
2017-Oct-08 08:59N 22°18' E 114°10'0 0.0
2017-Oct-08 08:29N 22°18' E 114°10'0 0.0
2017-Oct-08 07:59N 22°18' E 114°10'0 0.0
2017-Oct-08 07:29N 22°18' E 114°10'0 0.0
2017-Oct-08 06:59N 22°18' E 114°10'0 0.0
2017-Oct-08 06:29N 22°18' E 114°10'0 0.0
2017-Oct-08 05:59N 22°18' E 114°10'0 0.0
2017-Oct-08 05:29N 22°18' E 114°10'0 0.0
2017-Oct-08 04:59N 22°18' E 114°10'0 0.0
2017-Oct-08 04:29N 22°18' E 114°10'0 0.0
2017-Oct-08 03:59N 22°18' E 114°10'0 0.0
2017-Oct-08 03:29N 22°18' E 114°10'0 0.0
2017-Oct-08 02:59N 22°18' E 114°10'0 0.0
2017-Oct-08 02:29N 22°18' E 114°10'0 0.0
2017-Oct-08 01:59N 22°18' E 114°10'0 0.0
2017-Oct-08 01:29N 22°18' E 114°10'0 0.0
2017-Oct-08 00:59N 22°18' E 114°10'0 0.0
2017-Oct-08 00:29N 22°18' E 114°10'0 0.0
2017-Oct-08 00:00N 22°18' E 114°10'2 3.0
2017-Oct-07 23:28N 22°18' E 114°12'  
2017-Oct-04 22:59N 31°06' E 122°25'613.4
2017-Oct-04 22:30N 31°06' E 122°18'714.6
2017-Oct-04 22:00N 31°10' E 122°11'714.8
2017-Oct-04 21:30N 31°14' E 122°04'815.3
2017-Oct-04 21:00N 31°16' E 121°55'815.0
2017-Oct-04 20:30N 31°18' E 121°47'713.6
2017-Oct-04 20:00N 31°21' E 121°40'612.1
2017-Oct-04 19:30N 31°24' E 121°33'3 6.5
2017-Oct-04 19:00N 31°22' E 121°30'4 7.1
2017-Oct-04 18:30N 31°20' E 121°33'4 7.1
2017-Oct-04 18:00N 31°16' E 121°33'3 6.8
2017-Oct-04 17:30N 31°15' E 121°30'0 0.1
2017-Oct-04 17:00N 31°15' E 121°30'0 0.0
2017-Oct-04 16:30N 31°15' E 121°30'0 0.0
2017-Oct-04 16:00N 31°15' E 121°30'0 0.0
2017-Oct-04 15:30N 31°15' E 121°30'0 0.0
2017-Oct-04 15:00N 31°15' E 121°30'0 0.0
2017-Oct-04 14:30N 31°15' E 121°30'0 0.0
2017-Oct-04 13:57N 31°15' E 121°30'0 0.0
2017-Oct-04 13:21N 31°15' E 121°30'0 0.0
2017-Oct-04 13:00N 31°15' E 121°30'0 0.0
2017-Oct-04 11:57N 31°15' E 121°30'0 0.0
2017-Oct-04 11:27N 31°15' E 121°30'0 0.0
2017-Oct-04 10:54N 31°15' E 121°30'0 0.0
2017-Oct-04 10:27N 31°15' E 121°30'0 0.0
2017-Oct-04 10:00N 31°15' E 121°30'0 0.0
2017-Oct-04 09:27N 31°15' E 121°30'0 0.0
2017-Oct-04 08:48N 31°15' E 121°30'0 0.0
2017-Oct-04 08:30N 31°15' E 121°30'0 0.0
2017-Oct-04 08:00N 31°15' E 121°30'0 0.0
2017-Oct-04 07:27N 31°15' E 121°30'0 0.0
2017-Oct-04 06:54N 31°15' E 121°30'0 0.0
2017-Oct-04 06:15N 31°15' E 121°30'0 0.0
2017-Oct-04 05:57N 31°15' E 121°30'0 0.0
2017-Oct-04 05:30N 31°15' E 121°30'0 0.0
2017-Oct-04 04:54N 31°15' E 121°30'0 0.0
2017-Oct-04 04:24N 31°15' E 121°30'0 0.0
2017-Oct-04 02:39N 31°15' E 121°30'0 0.3
2017-Oct-04 02:30N 31°15' E 121°30'0 0.0
2017-Oct-04 01:57N 31°15' E 121°30'0 0.0
2017-Oct-04 01:30N 31°15' E 121°30'0 0.0
2017-Oct-04 01:00N 31°15' E 121°30'0 0.1
2017-Oct-04 00:27N 31°15' E 121°30'0 0.1
2017-Oct-03 23:57N 31°15' E 121°30'0 0.0
2017-Oct-03 23:27N 31°15' E 121°30'0 0.1
2017-Oct-03 23:00N 31°15' E 121°30'0 0.1
2017-Oct-03 22:24N 31°15' E 121°30'0 0.0
2017-Oct-03 22:00N 31°15' E 121°30'0 0.0
2017-Oct-03 21:27N 31°15' E 121°30'0 0.0
2017-Oct-03 21:00N 31°15' E 121°30'0 0.0
2017-Oct-03 20:27N 31°15' E 121°30'0 0.0
2017-Oct-03 19:51N 31°15' E 121°30'0 0.0
2017-Oct-03 19:30N 31°15' E 121°30'0 0.0
2017-Oct-03 19:00N 31°15' E 121°30'0 0.0
2017-Oct-03 18:30N 31°15' E 121°30'0 0.0
2017-Oct-03 18:00N 31°15' E 121°30'2 4.5
2017-Oct-03 17:30N 31°15' E 121°32'3 6.9
2017-Oct-03 17:00N 31°18' E 121°33'3 6.9
2017-Oct-03 16:30N 31°21' E 121°31'3 5.4
2017-Oct-03 16:00N 31°24' E 121°31'3 5.7
2017-Oct-03 15:30N 31°23' E 121°35'4 8.4
2017-Oct-03 15:01N 31°21' E 121°39'1413.7
2017-Oct-03 14:00N 31°11' E 121°50'815.1
2017-Oct-03 13:30N 31°07' E 121°57'611.5
2017-Oct-03 13:01N 31°05' E 122°03'713.2
2017-Oct-03 12:30N 31°03' E 122°11'5 9.7
2017-Oct-03 12:00N 31°03' E 122°16'918.8
2017-Oct-03 11:30N 31°01' E 122°27'  
Track history (hours):
 
Tides and Currents Weather Stations Pressure Air Temp Water Temp Dewpoint Dewpoint Depression Visibility Wind Speed Wind Dir Waves Ship Positions

Silver Shadow

Operator: V Ships Leisure SAM

Last reported at 2017-Oct-12 14:27 UTC. Time now 2017-Oct-20 03:38 UTC.
Position N 16°04' E 108°32'.

Length 186 m; draft 6.1 m.

Type: Ship. MMSI: 308628000.

Date/timePositionNaut miles runAvg speedWind from/ knotsBaromVisibWave heightAir tempDewpointWater temp
2017-Oct-12 14:27N 16°04' E 108°32'715.3
2017-Oct-12 14:00N 16°09' E 108°26'1415.5
2017-Oct-12 13:05N 16°17' E 108°14'115.8
2017-Oct-12 13:00N 16°18' E 108°13'14 1.1
2017-Oct-11 23:57N 16°23' E 107°60'  
2017-Oct-08 10:33N 22°18' E 114°12'1 8.2
2017-Oct-08 10:29N 22°18' E 114°12'1 2.9
2017-Oct-08 09:59N 22°18' E 114°10'0 0.0
2017-Oct-08 09:29N 22°18' E 114°10'0 0.0
2017-Oct-08 08:59N 22°18' E 114°10'0 0.0
2017-Oct-08 08:29N 22°18' E 114°10'0 0.0
2017-Oct-08 07:59N 22°18' E 114°10'0 0.0
2017-Oct-08 07:29N 22°18' E 114°10'0 0.0
2017-Oct-08 06:59N 22°18' E 114°10'0 0.0
2017-Oct-08 06:29N 22°18' E 114°10'0 0.0
2017-Oct-08 05:59N 22°18' E 114°10'0 0.0
2017-Oct-08 05:29N 22°18' E 114°10'0 0.0
2017-Oct-08 04:59N 22°18' E 114°10'0 0.0
2017-Oct-08 04:29N 22°18' E 114°10'0 0.0
2017-Oct-08 03:59N 22°18' E 114°10'0 0.0
2017-Oct-08 03:29N 22°18' E 114°10'0 0.0
2017-Oct-08 02:59N 22°18' E 114°10'0 0.0
2017-Oct-08 02:29N 22°18' E 114°10'0 0.0
2017-Oct-08 01:59N 22°18' E 114°10'0 0.0
2017-Oct-08 01:29N 22°18' E 114°10'0 0.0
2017-Oct-08 00:59N 22°18' E 114°10'0 0.0
2017-Oct-08 00:29N 22°18' E 114°10'0 0.0
2017-Oct-08 00:00N 22°18' E 114°10'2 3.0
2017-Oct-07 23:28N 22°18' E 114°12'  
2017-Oct-04 22:59N 31°06' E 122°25'613.4
2017-Oct-04 22:30N 31°06' E 122°18'714.6
2017-Oct-04 22:00N 31°10' E 122°11'714.8
2017-Oct-04 21:30N 31°14' E 122°04'815.3
2017-Oct-04 21:00N 31°16' E 121°55'815.0
2017-Oct-04 20:30N 31°18' E 121°47'713.6
2017-Oct-04 20:00N 31°21' E 121°40'612.1
2017-Oct-04 19:30N 31°24' E 121°33'3 6.5
2017-Oct-04 19:00N 31°22' E 121°30'4 7.1
2017-Oct-04 18:30N 31°20' E 121°33'4 7.1
2017-Oct-04 18:00N 31°16' E 121°33'3 6.8
2017-Oct-04 17:30N 31°15' E 121°30'0 0.1
2017-Oct-04 17:00N 31°15' E 121°30'0 0.0
2017-Oct-04 16:30N 31°15' E 121°30'0 0.0
2017-Oct-04 16:00N 31°15' E 121°30'0 0.0
2017-Oct-04 15:30N 31°15' E 121°30'0 0.0
2017-Oct-04 15:00N 31°15' E 121°30'0 0.0
2017-Oct-04 14:30N 31°15' E 121°30'0 0.0
2017-Oct-04 13:57N 31°15' E 121°30'0 0.0
2017-Oct-04 13:21N 31°15' E 121°30'0 0.0
2017-Oct-04 13:00N 31°15' E 121°30'0 0.0
2017-Oct-04 11:57N 31°15' E 121°30'0 0.0
2017-Oct-04 11:27N 31°15' E 121°30'0 0.0
2017-Oct-04 10:54N 31°15' E 121°30'0 0.0
2017-Oct-04 10:27N 31°15' E 121°30'0 0.0
2017-Oct-04 10:00N 31°15' E 121°30'0 0.0
2017-Oct-04 09:27N 31°15' E 121°30'0 0.0
2017-Oct-04 08:48N 31°15' E 121°30'0 0.0
2017-Oct-04 08:30N 31°15' E 121°30'0 0.0
2017-Oct-04 08:00N 31°15' E 121°30'0 0.0
2017-Oct-04 07:27N 31°15' E 121°30'0 0.0
2017-Oct-04 06:54N 31°15' E 121°30'0 0.0
2017-Oct-04 06:15N 31°15' E 121°30'0 0.0
2017-Oct-04 05:57N 31°15' E 121°30'0 0.0
2017-Oct-04 05:30N 31°15' E 121°30'0 0.0
2017-Oct-04 04:54N 31°15' E 121°30'0 0.0
2017-Oct-04 04:24N 31°15' E 121°30'0 0.0
2017-Oct-04 02:39N 31°15' E 121°30'0 0.3
2017-Oct-04 02:30N 31°15' E 121°30'0 0.0
2017-Oct-04 01:57N 31°15' E 121°30'0 0.0
2017-Oct-04 01:30N 31°15' E 121°30'0 0.0
2017-Oct-04 01:00N 31°15' E 121°30'0 0.1
2017-Oct-04 00:27N 31°15' E 121°30'0 0.1
2017-Oct-03 23:57N 31°15' E 121°30'0 0.0
2017-Oct-03 23:27N 31°15' E 121°30'0 0.1
2017-Oct-03 23:00N 31°15' E 121°30'0 0.1
2017-Oct-03 22:24N 31°15' E 121°30'0 0.0
2017-Oct-03 22:00N 31°15' E 121°30'0 0.0
2017-Oct-03 21:27N 31°15' E 121°30'0 0.0
2017-Oct-03 21:00N 31°15' E 121°30'0 0.0
2017-Oct-03 20:27N 31°15' E 121°30'0 0.0
2017-Oct-03 19:51N 31°15' E 121°30'0 0.0
2017-Oct-03 19:30N 31°15' E 121°30'0 0.0
2017-Oct-03 19:00N 31°15' E 121°30'0 0.0
2017-Oct-03 18:30N 31°15' E 121°30'0 0.0
2017-Oct-03 18:00N 31°15' E 121°30'2 4.5
2017-Oct-03 17:30N 31°15' E 121°32'3 6.9
2017-Oct-03 17:00N 31°18' E 121°33'3 6.9
2017-Oct-03 16:30N 31°21' E 121°31'3 5.4
2017-Oct-03 16:00N 31°24' E 121°31'3 5.7
2017-Oct-03 15:30N 31°23' E 121°35'4 8.4
2017-Oct-03 15:01N 31°21' E 121°39'1413.7
2017-Oct-03 14:00N 31°11' E 121°50'815.1
2017-Oct-03 13:30N 31°07' E 121°57'611.5
2017-Oct-03 13:01N 31°05' E 122°03'713.2
2017-Oct-03 12:30N 31°03' E 122°11'5 9.7
2017-Oct-03 12:00N 31°03' E 122°16'918.8
2017-Oct-03 11:30N 31°01' E 122°27'  

Dump ship's entire track history